createdAt,value
2018-05-25T00:00:54.499Z,5.97
2018-05-25T00:03:57.611Z,6.17
2018-05-25T00:06:59.649Z,6.20
2018-05-25T00:10:01.730Z,5.97
2018-05-25T00:13:03.806Z,6.30
2018-05-25T00:16:05.891Z,5.90
2018-05-25T00:19:07.924Z,6.13
2018-05-25T00:22:11.212Z,6.20
2018-05-25T00:25:13.302Z,6.07
2018-05-25T00:28:15.480Z,6.17
2018-05-25T00:31:17.566Z,6.53
2018-05-25T00:34:19.642Z,6.07
2018-05-25T00:37:34.660Z,6.17
2018-05-25T00:40:36.751Z,5.80
2018-05-25T00:43:39.752Z,6.13
2018-05-25T00:46:41.899Z,6.10
2018-05-25T00:49:43.970Z,5.80
2018-05-25T00:52:46.056Z,5.90
2018-05-25T00:55:48.023Z,5.93
2018-05-25T00:58:50.499Z,6.37
2018-05-25T01:01:52.592Z,5.97
2018-05-25T01:04:54.752Z,6.10
2018-05-25T01:08:04.537Z,5.80
2018-05-25T01:11:06.672Z,6.07
2018-05-25T01:14:09.835Z,6.70
2018-05-25T01:17:11.925Z,6.60
2018-05-25T01:20:14.099Z,6.77
2018-05-25T01:23:16.196Z,7.20
2018-05-25T01:26:18.383Z,6.97
2018-05-25T01:29:20.507Z,6.90
2018-05-25T01:32:22.810Z,7.03
2018-05-25T01:35:24.827Z,6.30
2018-05-25T01:38:26.952Z,6.73
2018-05-25T01:41:29.076Z,7.27
2018-05-25T01:44:31.374Z,7.47
2018-05-25T01:47:33.546Z,6.77
2018-05-25T01:50:35.719Z,7.63
2018-05-25T01:53:37.883Z,6.83
2018-05-25T01:56:40.971Z,6.97
2018-05-25T01:59:43.061Z,7.13
2018-05-25T02:02:45.188Z,6.83
2018-05-25T02:05:47.290Z,7.43
2018-05-25T02:08:49.234Z,7.60
2018-05-25T02:11:52.344Z,7.60
2018-05-25T02:14:54.416Z,7.33
2018-05-25T02:17:58.523Z,7.33
2018-05-25T02:21:00.595Z,7.37
2018-05-25T02:24:02.679Z,7.67
2018-05-25T02:27:04.849Z,7.97
2018-05-25T02:30:07.101Z,8.43
2018-05-25T02:33:10.292Z,7.70
2018-05-25T02:36:13.425Z,7.83
2018-05-25T02:39:15.473Z,7.60
2018-05-25T02:42:23.157Z,6.93
2018-05-25T02:45:25.238Z,7.40
2018-05-25T02:48:27.292Z,8.30
2018-05-25T02:51:41.552Z,7.67
2018-05-25T02:54:43.517Z,7.40
2018-05-25T02:57:45.563Z,8.03
2018-05-25T03:00:47.666Z,6.67
2018-05-25T03:03:49.719Z,7.07
2018-05-25T03:06:51.800Z,7.50
2018-05-25T03:09:53.955Z,7.90
2018-05-25T03:12:56.072Z,7.67
2018-05-25T03:15:58.094Z,7.90
2018-05-25T03:19:01.274Z,7.77
2018-05-25T03:22:05.427Z,8.10
2018-05-25T03:25:07.471Z,8.47
2018-05-25T03:28:10.572Z,7.67
2018-05-25T03:31:12.772Z,8.20
2018-05-25T03:34:14.807Z,8.20
2018-05-25T03:37:16.842Z,8.00
2018-05-25T03:40:18.947Z,8.77
2018-05-25T03:43:20.908Z,7.73
2018-05-25T03:46:23.063Z,8.10
2018-05-25T03:49:25.141Z,8.40
2018-05-25T03:52:27.210Z,8.47
2018-05-25T03:55:29.292Z,8.70
2018-05-25T03:58:40.386Z,7.27
2018-05-25T04:01:58.534Z,8.30
2018-05-25T04:05:05.082Z,8.97
2018-05-25T04:08:07.183Z,9.27
2018-05-25T04:11:09.311Z,8.50
2018-05-25T04:14:11.403Z,8.90
2018-05-25T04:17:19.308Z,8.00
2018-05-25T04:20:21.408Z,8.60
2018-05-25T04:23:23.535Z,8.30
2018-05-25T04:26:25.556Z,7.80
2018-05-25T04:29:27.674Z,8.50
2018-05-25T04:32:29.720Z,7.50
2018-05-25T04:35:31.851Z,8.30
2018-05-25T04:38:33.986Z,8.00
2018-05-25T04:41:36.003Z,8.47
2018-05-25T04:44:38.013Z,8.23
2018-05-25T04:47:40.121Z,9.73
2018-05-25T04:50:42.094Z,8.33
2018-05-25T04:53:44.928Z,9.23
2018-05-25T04:56:47.017Z,9.37
2018-05-25T04:59:50.121Z,8.30
2018-05-25T05:02:52.312Z,9.57
2018-05-25T05:05:54.439Z,8.80
2018-05-25T05:08:56.425Z,9.70
2018-05-25T05:11:58.516Z,9.30
2018-05-25T05:15:00.565Z,9.00
2018-05-25T05:18:03.679Z,8.93
2018-05-25T05:21:06.842Z,9.43
2018-05-25T05:24:08.919Z,10.13
2018-05-25T05:27:11.085Z,10.33
2018-05-25T05:30:13.288Z,8.97
2018-05-25T05:33:16.552Z,9.50
2018-05-25T05:36:18.719Z,9.40
2018-05-25T05:39:20.811Z,9.70
2018-05-25T05:42:22.980Z,9.80
2018-05-25T05:45:25.064Z,9.83
2018-05-25T05:48:27.136Z,10.33
2018-05-25T05:51:29.281Z,9.70
2018-05-25T05:54:33.425Z,10.73
2018-05-25T05:57:35.459Z,10.67
2018-05-25T06:00:37.604Z,10.10
2018-05-25T06:03:39.676Z,10.87
2018-05-25T06:06:41.740Z,11.53
2018-05-25T06:09:43.913Z,12.13
2018-05-25T06:12:46.000Z,10.87
2018-05-25T06:15:48.096Z,10.37
2018-05-25T06:18:50.272Z,10.37
2018-05-25T06:21:52.407Z,10.77
2018-05-25T06:24:54.479Z,9.70
2018-05-25T06:27:56.724Z,8.93
2018-05-25T06:30:58.904Z,9.13
2018-05-25T06:34:01.024Z,9.27
2018-05-25T06:37:07.860Z,8.70
2018-05-25T06:40:09.944Z,9.40
2018-05-25T06:43:12.190Z,9.23
2018-05-25T06:46:14.399Z,9.53
2018-05-25T06:49:17.404Z,9.50
2018-05-25T06:52:19.497Z,8.87
2018-05-25T06:55:21.560Z,8.93
2018-05-25T06:58:23.634Z,9.13
2018-05-25T07:01:25.817Z,8.80
2018-05-25T07:04:28.019Z,9.17
2018-05-25T07:07:30.083Z,7.93
2018-05-25T07:10:32.236Z,8.97
2018-05-25T07:13:34.367Z,9.47
2018-05-25T07:16:36.569Z,9.97
2018-05-25T07:19:38.604Z,10.43
2018-05-25T07:22:40.973Z,8.83
2018-05-25T07:25:43.040Z,10.23
2018-05-25T07:28:48.602Z,9.97
2018-05-25T07:31:50.817Z,9.23
2018-05-25T07:34:52.984Z,9.83
2018-05-25T07:37:55.162Z,10.20
2018-05-25T07:40:57.320Z,9.00
2018-05-25T07:43:59.357Z,9.00
2018-05-25T07:47:01.609Z,9.90
2018-05-25T07:50:03.749Z,8.07
2018-05-25T07:53:05.881Z,9.03
2018-05-25T07:56:08.061Z,9.40
2018-05-25T07:59:10.078Z,8.67
2018-05-25T08:02:12.288Z,10.00
2018-05-25T08:05:14.388Z,10.10
2018-05-25T08:08:17.480Z,9.37
2018-05-25T08:11:19.516Z,10.07
2018-05-25T08:14:21.598Z,10.37
2018-05-25T08:17:23.661Z,11.40
2018-05-25T08:20:25.873Z,10.10
2018-05-25T08:23:28.036Z,10.70
2018-05-25T08:26:30.451Z,10.50
2018-05-25T08:29:32.699Z,10.17
2018-05-25T08:32:34.886Z,10.53
2018-05-25T08:35:37.120Z,10.17
2018-05-25T08:38:39.312Z,9.67
2018-05-25T08:41:42.360Z,10.27
2018-05-25T08:44:44.525Z,9.57
2018-05-25T08:47:49.041Z,10.77
2018-05-25T08:50:51.132Z,9.40
2018-05-25T08:53:53.283Z,10.60
2018-05-25T08:56:55.378Z,11.87
2018-05-25T08:59:57.480Z,10.43
2018-05-25T09:02:59.591Z,9.60
2018-05-25T09:06:01.956Z,9.47
2018-05-25T09:09:04.908Z,9.30
2018-05-25T09:12:07.003Z,10.70
2018-05-25T09:15:09.051Z,10.07
2018-05-25T09:18:11.194Z,10.47
2018-05-25T09:21:13.325Z,9.63
2018-05-25T09:24:15.359Z,8.30
2018-05-25T09:27:18.271Z,8.60
2018-05-25T09:30:20.272Z,8.80
2018-05-25T09:33:22.262Z,9.00
2018-05-25T09:36:24.351Z,8.47
2018-05-25T09:39:26.414Z,8.70
2018-05-25T09:42:28.486Z,8.60
2018-05-25T09:45:30.451Z,7.40
2018-05-25T09:48:32.523Z,7.40
2018-05-25T09:51:34.627Z,7.77
2018-05-25T09:54:36.737Z,8.33
2018-05-25T09:57:42.050Z,7.73
2018-05-25T10:00:44.118Z,7.30
2018-05-25T10:03:47.579Z,7.47
2018-05-25T10:06:49.660Z,8.37
2018-05-25T10:09:51.734Z,8.33
2018-05-25T10:12:54.813Z,8.07
2018-05-25T10:15:57.914Z,10.17
2018-05-25T10:19:00.028Z,11.13
2018-05-25T10:22:02.169Z,8.20
2018-05-25T10:25:04.338Z,7.93
2018-05-25T10:28:06.364Z,7.53
2018-05-25T10:31:08.467Z,6.40
2018-05-25T10:34:10.622Z,14.20
2018-05-25T10:37:12.785Z,13.43
2018-05-25T10:40:14.969Z,15.40
2018-05-25T10:43:18.075Z,14.30
2018-05-25T10:46:20.143Z,15.63
2018-05-25T10:49:22.103Z,13.93
2018-05-25T10:52:24.155Z,15.50
2018-05-25T10:55:26.388Z,16.13
2018-05-25T10:58:28.519Z,15.23
2018-05-25T11:01:30.570Z,13.53
2018-05-25T11:04:32.740Z,12.93
2018-05-25T11:07:34.812Z,11.07
2018-05-25T11:10:36.870Z,10.47
2018-05-25T11:13:39.001Z,12.13
2018-05-25T11:16:41.340Z,17.83
2018-05-25T11:19:43.553Z,15.30
2018-05-25T11:22:45.810Z,17.27
2018-05-25T11:25:48.567Z,15.90
2018-05-25T11:28:50.791Z,16.60
2018-05-25T11:31:52.881Z,15.80
2018-05-25T11:34:55.040Z,15.63
2018-05-25T11:37:57.292Z,15.63
2018-05-25T11:40:59.563Z,14.40
2018-05-25T11:44:01.698Z,13.00
2018-05-25T11:47:03.784Z,15.37
2018-05-25T11:50:05.816Z,11.93
2018-05-25T11:53:07.910Z,11.87
2018-05-25T11:56:10.039Z,11.43
2018-05-25T11:59:13.129Z,10.93
2018-05-25T12:02:15.176Z,11.30
2018-05-25T12:05:18.227Z,10.90
2018-05-25T12:08:20.287Z,12.10
2018-05-25T12:11:22.393Z,11.30
2018-05-25T12:14:24.546Z,10.90
2018-05-25T12:17:26.684Z,10.53
2018-05-25T12:20:28.744Z,9.10
2018-05-25T12:23:30.910Z,11.07
2018-05-25T12:26:33.110Z,11.00
2018-05-25T12:29:35.234Z,10.10
2018-05-25T12:32:37.383Z,9.23
2018-05-25T12:35:39.385Z,9.43
2018-05-25T12:38:41.720Z,8.33
2018-05-25T12:41:43.854Z,7.80
2018-05-25T12:44:55.117Z,7.63
2018-05-25T12:47:57.242Z,9.73
2018-05-25T12:50:59.215Z,9.33
2018-05-25T12:54:01.257Z,9.97
2018-05-25T12:57:04.334Z,10.90
2018-05-25T13:00:06.435Z,10.60
2018-05-25T13:03:08.479Z,10.33
2018-05-25T13:06:10.658Z,11.57
2018-05-25T13:09:12.718Z,10.50
2018-05-25T13:12:15.096Z,11.10
2018-05-25T13:15:17.173Z,9.17
2018-05-25T13:18:19.384Z,8.50
2018-05-25T13:21:21.315Z,8.20
2018-05-25T13:24:23.486Z,7.23
2018-05-25T13:27:26.363Z,7.87
2018-05-25T13:30:29.099Z,8.40
2018-05-25T13:33:31.273Z,8.07
2018-05-25T13:36:33.811Z,7.40
2018-05-25T13:39:35.879Z,7.33
2018-05-25T13:42:37.999Z,7.10
2018-05-25T13:45:40.098Z,6.90
2018-05-25T13:48:43.154Z,7.70
2018-05-25T13:51:45.273Z,7.90
2018-05-25T13:54:47.388Z,7.40
2018-05-25T13:57:49.417Z,6.50
2018-05-25T14:00:51.527Z,6.63
2018-05-25T14:03:53.549Z,6.20
2018-05-25T14:06:56.689Z,5.63
2018-05-25T14:09:58.639Z,5.50
2018-05-25T14:13:01.799Z,5.73
2018-05-25T14:16:04.464Z,5.63
2018-05-25T14:19:06.535Z,5.00
2018-05-25T14:22:09.044Z,5.27
2018-05-25T14:25:11.207Z,5.13
2018-05-25T14:28:13.270Z,5.13
2018-05-25T14:31:15.431Z,4.93
2018-05-25T14:34:17.509Z,4.50
2018-05-25T14:37:19.698Z,4.70
2018-05-25T14:40:21.860Z,4.13
2018-05-25T14:43:23.905Z,4.53
2018-05-25T14:46:26.095Z,3.93
2018-05-25T14:49:28.253Z,4.77
2018-05-25T14:52:30.312Z,4.77
2018-05-25T14:55:32.283Z,4.50
2018-05-25T14:58:34.964Z,4.67
2018-05-25T15:01:37.047Z,4.73
2018-05-25T15:04:39.079Z,4.37
2018-05-25T15:07:41.190Z,4.50
2018-05-25T15:10:43.260Z,4.57
2018-05-25T15:13:45.337Z,4.50
2018-05-25T15:16:47.491Z,4.27
2018-05-25T15:19:49.560Z,4.30
2018-05-25T15:22:51.803Z,4.47
2018-05-25T15:25:53.906Z,3.93
2018-05-25T15:28:56.096Z,4.53
2018-05-25T15:31:58.102Z,4.20
2018-05-25T15:35:00.111Z,3.90
2018-05-25T15:38:02.193Z,4.17
2018-05-25T15:41:05.378Z,4.70
2018-05-25T15:44:07.408Z,3.73
2018-05-25T15:47:10.636Z,3.23
2018-05-25T15:50:12.819Z,3.20
2018-05-25T15:53:14.887Z,3.23
2018-05-25T15:56:16.999Z,3.10
2018-05-25T15:59:19.120Z,3.30
2018-05-25T16:02:21.229Z,3.07
2018-05-25T16:05:23.268Z,3.00
2018-05-25T16:08:25.427Z,3.10
2018-05-25T16:11:27.468Z,3.00
2018-05-25T16:14:29.558Z,3.20
2018-05-25T16:17:31.601Z,3.00
2018-05-25T16:20:33.709Z,2.70
2018-05-25T16:23:36.423Z,2.60
2018-05-25T16:26:38.452Z,2.70
2018-05-25T16:29:40.523Z,3.10
2018-05-25T16:32:42.640Z,2.77
2018-05-25T16:35:44.700Z,2.57
2018-05-25T16:38:46.859Z,2.53
2018-05-25T16:41:49.056Z,2.40
2018-05-25T16:44:51.144Z,2.50
2018-05-25T16:47:53.228Z,2.50
2018-05-25T16:50:55.346Z,2.87
2018-05-25T16:53:58.463Z,2.57
2018-05-25T16:57:00.548Z,2.30
2018-05-25T17:00:02.691Z,2.30
2018-05-25T17:03:05.542Z,2.60
2018-05-25T17:06:07.688Z,2.73
2018-05-25T17:09:09.716Z,2.60
2018-05-25T17:12:11.840Z,2.90
2018-05-25T17:15:13.887Z,2.70
2018-05-25T17:18:15.988Z,2.03
2018-05-25T17:21:18.133Z,2.50
2018-05-25T17:24:20.213Z,2.60
2018-05-25T17:27:22.317Z,2.47
2018-05-25T17:30:24.352Z,3.17
2018-05-25T17:33:26.367Z,2.90
2018-05-25T17:36:28.496Z,2.43
2018-05-25T17:39:30.523Z,2.77
2018-05-25T17:42:32.775Z,3.13
2018-05-25T17:45:35.583Z,2.47
2018-05-25T17:48:37.570Z,2.60
2018-05-25T17:51:39.636Z,2.60
2018-05-25T17:54:41.716Z,2.60
2018-05-25T17:57:43.892Z,2.73
2018-05-25T18:00:45.956Z,2.43
2018-05-25T18:03:48.023Z,2.77
2018-05-25T18:06:50.099Z,2.60
2018-05-25T18:09:52.141Z,2.60
2018-05-25T18:12:54.255Z,2.43
2018-05-25T18:15:56.410Z,2.63
2018-05-25T18:18:59.483Z,3.10
2018-05-25T18:22:01.584Z,3.20
2018-05-25T18:25:03.760Z,4.50
2018-05-25T18:28:05.788Z,5.00
2018-05-25T18:31:07.892Z,3.57
2018-05-25T18:34:09.924Z,3.50
2018-05-25T18:37:12.009Z,3.30
2018-05-25T18:40:14.069Z,3.73
2018-05-25T18:43:16.148Z,4.00
2018-05-25T18:46:18.089Z,4.47
2018-05-25T18:49:20.766Z,3.93
2018-05-25T18:52:22.855Z,3.67
2018-05-25T18:55:25.042Z,3.60
2018-05-25T18:58:27.111Z,3.20
2018-05-25T19:01:30.042Z,3.40
2018-05-25T19:04:33.256Z,3.80
2018-05-25T19:07:35.864Z,3.77
2018-05-25T19:10:38.973Z,3.30
2018-05-25T19:13:41.143Z,3.70
2018-05-25T19:16:43.212Z,3.80
2018-05-25T19:19:46.315Z,4.43
2018-05-25T19:22:48.388Z,4.67
2018-05-25T19:25:51.493Z,4.50
2018-05-25T19:28:53.511Z,4.80
2018-05-25T19:31:55.600Z,5.30
2018-05-25T19:34:57.669Z,5.33
2018-05-25T19:38:00.746Z,4.90
2018-05-25T19:41:02.916Z,4.83
2018-05-25T19:44:05.082Z,4.70
2018-05-25T19:47:07.041Z,4.87
2018-05-25T19:50:09.115Z,4.53
2018-05-25T19:53:12.228Z,4.13
2018-05-25T19:56:14.416Z,4.70
2018-05-25T19:59:16.446Z,4.63
2018-05-25T20:02:18.515Z,4.63
2018-05-25T20:05:20.658Z,4.63
2018-05-25T20:08:22.914Z,4.90
2018-05-25T20:11:24.961Z,4.80
2018-05-25T20:14:27.149Z,4.57
2018-05-25T20:17:30.601Z,4.77
2018-05-25T20:20:32.700Z,4.70
2018-05-25T20:23:34.657Z,4.87
2018-05-25T20:26:36.713Z,4.60
2018-05-25T20:29:38.955Z,4.70
2018-05-25T20:32:42.118Z,4.57
2018-05-25T20:35:44.131Z,5.17
2018-05-25T20:38:46.214Z,4.90
2018-05-25T20:41:48.264Z,4.90
2018-05-25T20:44:50.329Z,4.83
2018-05-25T20:47:52.319Z,4.83
2018-05-25T20:50:54.377Z,4.73
2018-05-25T20:53:56.479Z,4.40
2018-05-25T20:56:58.513Z,4.90
2018-05-25T21:00:01.180Z,5.20
2018-05-25T21:03:03.244Z,5.10
2018-05-25T21:06:05.784Z,5.00
2018-05-25T21:09:07.919Z,5.23
2018-05-25T21:12:10.001Z,5.43
2018-05-25T21:15:12.047Z,5.30
2018-05-25T21:18:14.108Z,5.10
2018-05-25T21:21:16.218Z,5.93
2018-05-25T21:24:21.544Z,5.77
2018-05-25T21:27:23.614Z,5.97
2018-05-25T21:30:25.677Z,5.67
2018-05-25T21:33:27.968Z,6.40
2018-05-25T21:36:29.912Z,5.40
2018-05-25T21:39:32.499Z,5.90
2018-05-25T21:42:34.586Z,6.37
2018-05-25T21:45:36.671Z,5.57
2018-05-25T21:48:38.707Z,5.20
2018-05-25T21:51:40.742Z,5.20
2018-05-25T21:54:42.775Z,5.77
2018-05-25T21:57:44.991Z,5.20
2018-05-25T22:00:47.706Z,5.20
2018-05-25T22:03:49.779Z,5.00
2018-05-25T22:06:51.959Z,5.23
2018-05-25T22:09:53.984Z,5.40
2018-05-25T22:12:56.060Z,5.10
2018-05-25T22:15:58.332Z,5.73
2018-05-25T22:19:01.636Z,5.70
2018-05-25T22:22:03.696Z,5.17
2018-05-25T22:25:05.778Z,5.00
2018-05-25T22:28:08.365Z,4.77
2018-05-25T22:31:10.408Z,5.33
2018-05-25T22:34:12.518Z,5.07
2018-05-25T22:37:14.552Z,5.60
2018-05-25T22:40:16.545Z,5.43
2018-05-25T22:43:30.319Z,4.93
2018-05-25T22:46:43.947Z,5.87
2018-05-25T22:49:57.483Z,5.30
2018-05-25T22:53:03.192Z,4.97
2018-05-25T22:56:05.132Z,5.17
2018-05-25T22:59:07.323Z,5.43
2018-05-25T23:02:09.402Z,5.30
2018-05-25T23:05:12.397Z,5.20
2018-05-25T23:08:14.471Z,4.83
2018-05-25T23:11:16.538Z,4.80
2018-05-25T23:14:18.608Z,4.67
2018-05-25T23:17:20.698Z,4.63
2018-05-25T23:20:22.715Z,4.70
2018-05-25T23:23:24.730Z,5.00
2018-05-25T23:26:27.856Z,4.80
2018-05-25T23:29:30.920Z,5.20
2018-05-25T23:32:32.949Z,4.50
2018-05-25T23:35:35.019Z,4.97
2018-05-25T23:38:37.112Z,5.13
2018-05-25T23:41:40.095Z,4.27
2018-05-25T23:44:42.159Z,4.90
2018-05-25T23:47:44.218Z,4.63
2018-05-25T23:50:46.328Z,4.97
2018-05-25T23:53:48.463Z,5.00
2018-05-25T23:56:50.517Z,4.83
2018-05-25T23:59:52.592Z,5.23
